Time;durP1;ratioP1;P1;durP2;ratioP2;P2;SDS_P1;SDS_P2;PMS_P1;PMS_P2;Temp;Humidity;BMP_temperature;BMP_pressure;BME280_temperature;BME280_humidity;BME280_pressure;Samples;Min_cycle;Max_cycle;Signal;HPM_P1;HPM_P2
2022/03/02 00:01:58;;;;;;;14.80;12.90;;;3.10;79.90;;;;;;10466675;28;20933;-80
2022/03/02 00:07:01;;;;;;;12.27;11.00;;;3.10;81.40;;;;;;10459799;28;20281;-79
2022/03/02 00:12:03;;;;;;;13.00;11.70;;;3.20;82.30;;;;;;10466661;28;20216;-79
2022/03/02 00:17:06;;;;;;;17.50;13.60;;;3.20;81.10;;;;;;10474204;28;20201;-78
2022/03/02 00:22:10;;;;;;;14.63;13.10;;;3.20;82.10;;;;;;10477794;28;20335;-78
2022/03/02 00:27:14;;;;;;;17.90;14.47;;;3.10;79.70;;;;;;10465246;28;20201;-79
2022/03/02 00:32:17;;;;;;;20.27;14.60;;;3.00;80.90;;;;;;10463018;28;20224;-80
2022/03/02 00:37:20;;;;;;;15.10;12.90;;;3.00;81.60;;;;;;10454833;28;20200;-80
2022/03/02 00:42:23;;;;;;;15.23;12.80;;;3.10;82.20;;;;;;10459882;28;20240;-79
2022/03/02 00:47:25;;;;;;;14.83;11.50;;;3.20;81.10;;;;;;10467989;28;20189;-80
2022/03/02 00:52:29;;;;;;;14.57;12.27;;;3.30;80.30;;;;;;10466302;28;20217;-79
2022/03/02 00:57:31;;;;;;;15.67;11.60;;;3.40;82.40;;;;;;10456066;28;20200;-79
2022/03/02 01:02:34;;;;;;;18.40;13.33;;;3.50;79.70;;;;;;10482287;28;20560;-80
2022/03/02 01:07:37;;;;;;;14.60;13.10;;;3.50;79.90;;;;;;10473418;28;20209;-80
2022/03/02 01:12:40;;;;;;;13.50;12.03;;;3.50;81.90;;;;;;10475128;28;20216;-79
2022/03/02 01:17:43;;;;;;;13.67;12.13;;;3.50;84.10;;;;;;10490412;28;20235;-80
2022/03/02 01:22:46;;;;;;;12.63;11.23;;;3.60;84.10;;;;;;10455573;28;20238;-80
2022/03/02 01:27:48;;;;;;;14.90;13.30;;;3.60;81.90;;;;;;10482832;28;20752;-79
2022/03/02 01:32:50;;;;;;;11.93;10.73;;;3.60;82.40;;;;;;10482891;28;20221;-80
2022/03/02 01:37:54;;;;;;;12.77;11.50;;;3.60;82.60;;;;;;10477241;28;20204;-80
2022/03/02 01:42:56;;;;;;;13.50;12.10;;;3.50;83.90;;;;;;10485269;28;20301;-80
2022/03/02 01:48:00;;;;;;;12.00;10.73;;;3.50;82.00;;;;;;10442127;28;20197;-80
2022/03/02 01:53:04;;;;;;;13.50;12.10;;;3.50;80.30;;;;;;10457448;28;20262;-80
2022/03/02 01:58:06;;;;;;;17.30;13.50;;;3.40;81.00;;;;;;10475355;28;20205;-79
2022/03/02 02:03:09;;;;;;;12.90;11.57;;;3.40;81.20;;;;;;10465597;28;20212;-79
2022/03/02 02:08:12;;;;;;;13.30;12.03;;;3.30;79.30;;;;;;10477636;28;20258;-79
2022/03/02 02:13:14;;;;;;;13.13;11.83;;;3.30;80.60;;;;;;10452312;28;20229;-79
2022/03/02 02:18:17;;;;;;;12.90;11.60;;;3.20;79.20;;;;;;10482825;28;20299;-79
2022/03/02 02:23:20;;;;;;;13.13;11.83;;;3.20;80.60;;;;;;10487234;28;20247;-79
2022/03/02 02:28:25;;;;;;;14.27;12.87;;;3.10;81.60;;;;;;10467507;28;20585;-79
2022/03/02 02:33:28;;;;;;;12.97;11.67;;;3.10;82.70;;;;;;10431185;22;20264;-83
2022/03/02 02:38:31;;;;;;;13.07;11.30;;;3.20;82.50;;;;;;10389324;28;20205;-83
2022/03/02 02:43:33;;;;;;;12.27;11.03;;;3.20;79.80;;;;;;10425732;28;20233;-83
2022/03/02 02:48:37;;;;;;;13.33;12.03;;;3.10;80.40;;;;;;10393730;28;20198;-83
2022/03/02 02:53:42;;;;;;;15.10;11.60;;;3.00;80.80;;;;;;10392720;28;20244;-83
2022/03/02 02:58:44;;;;;;;13.60;12.30;;;2.90;81.20;;;;;;10388978;28;20292;-83
2022/03/02 03:03:48;;;;;;;13.63;12.20;;;2.70;83.50;;;;;;10382215;28;20210;-83
2022/03/02 03:08:52;;;;;;;15.33;12.50;;;2.80;84.20;;;;;;10384976;28;20305;-83
2022/03/02 03:13:54;;;;;;;14.30;12.80;;;2.80;81.50;;;;;;10380288;28;20276;-83
2022/03/02 03:18:56;;;;;;;13.60;12.23;;;2.70;81.80;;;;;;10381025;28;20209;-83
2022/03/02 03:23:59;;;;;;;13.10;11.90;;;2.70;83.70;;;;;;10400932;28;20579;-83
2022/03/02 03:29:02;;;;;;;13.67;12.27;;;2.70;85.00;;;;;;10394455;28;20277;-83
2022/03/02 03:34:04;;;;;;;14.83;12.93;;;2.70;81.40;;;;;;10376437;28;1113040;-83
2022/03/02 03:39:07;;;;;;;15.60;14.00;;;2.80;80.80;;;;;;10388088;28;20197;-83
2022/03/02 03:44:09;;;;;;;15.20;13.63;;;2.70;81.30;;;;;;10407390;28;20595;-84
2022/03/02 03:49:11;;;;;;;13.90;12.50;;;2.70;82.50;;;;;;10392865;28;20202;-83
2022/03/02 03:54:15;;;;;;;13.50;12.20;;;2.70;82.50;;;;;;10395624;28;20232;-83
2022/03/02 03:59:17;;;;;;;14.90;13.40;;;2.70;82.40;;;;;;10395600;28;20225;-84
2022/03/02 04:04:19;;;;;;;15.00;13.50;;;2.70;81.80;;;;;;10420705;28;20252;-84
2022/03/02 04:09:22;;;;;;;15.43;13.60;;;2.60;83.60;;;;;;10401219;28;20546;-84
2022/03/02 04:14:25;;;;;;;14.67;13.20;;;2.60;83.30;;;;;;10404997;28;20635;-83
2022/03/02 04:19:27;;;;;;;14.03;12.63;;;2.50;82.00;;;;;;10407813;28;20225;-84
2022/03/02 04:24:30;;;;;;;14.00;12.60;;;2.50;84.10;;;;;;10392631;28;20210;-84
2022/03/02 04:29:32;;;;;;;15.90;13.50;;;2.50;83.00;;;;;;10412617;28;20232;-83
2022/03/02 04:34:35;;;;;;;14.83;13.27;;;2.40;83.10;;;;;;10413895;28;20228;-84
2022/03/02 04:39:38;;;;;;;16.87;13.57;;;2.40;84.20;;;;;;10410056;28;20520;-83
2022/03/02 04:44:40;;;;;;;15.73;14.13;;;2.40;83.30;;;;;;10412336;28;20248;-84
2022/03/02 04:49:42;;;;;;;13.37;12.17;;;2.40;82.90;;;;;;10418998;28;20205;-82
2022/03/02 05:00:04;;;;;;;15.10;13.17;;;2.30;84.30;;;;;;10404370;28;20208;-83
2022/03/02 05:05:08;;;;;;;15.97;13.67;;;2.40;84.00;;;;;;10389785;28;20655;-83
2022/03/02 05:10:14;;;;;;;14.10;12.63;;;2.30;83.00;;;;;;10406488;28;20206;-83
2022/03/02 05:15:19;;;;;;;15.10;13.40;;;2.30;83.30;;;;;;10409299;28;20728;-83
2022/03/02 05:20:22;;;;;;;16.23;12.73;;;2.30;84.50;;;;;;10398568;28;20727;-83
2022/03/02 05:25:25;;;;;;;16.23;13.90;;;2.30;83.50;;;;;;10387092;28;20313;-83
2022/03/02 05:30:27;;;;;;;15.40;13.00;;;2.40;85.80;;;;;;10391814;28;20202;-82
2022/03/02 05:35:30;;;;;;;14.70;13.30;;;2.50;85.50;;;;;;10389620;28;20223;-81
2022/03/02 05:40:33;;;;;;;15.33;13.63;;;2.50;82.90;;;;;;10366797;28;20674;-82
2022/03/02 05:45:36;;;;;;;17.23;14.53;;;2.60;84.60;;;;;;10375584;28;20210;-82
2022/03/02 05:50:38;;;;;;;16.03;14.23;;;2.60;82.60;;;;;;10410372;28;20249;-84
2022/03/02 05:55:41;;;;;;;29.33;20.87;;;2.50;81.50;;;;;;10413661;28;20221;-82
2022/03/02 06:00:43;;;;;;;22.47;18.27;;;2.50;84.40;;;;;;10396827;28;20230;-82
2022/03/02 06:05:45;;;;;;;27.13;19.87;;;2.50;83.80;;;;;;10416627;28;20194;-83
2022/03/02 06:10:49;;;;;;;22.50;19.27;;;2.50;84.80;;;;;;10417436;28;20697;-82
2022/03/02 06:15:52;;;;;;;23.10;18.23;;;2.60;85.20;;;;;;10421411;28;20272;-82
2022/03/02 06:21:00;;;;;;;20.20;17.10;;;2.70;86.60;;;;;;10403016;28;20217;-82
2022/03/02 06:26:04;;;;;;;20.80;17.47;;;2.80;86.50;;;;;;10403412;28;20190;-83
2022/03/02 06:31:06;;;;;;;17.57;15.80;;;2.90;85.60;;;;;;10404710;28;20252;-83
2022/03/02 06:36:08;;;;;;;16.70;14.93;;;3.00;85.10;;;;;;10400114;28;20300;-83
2022/03/02 06:41:22;;;;;;;17.60;15.77;;;3.10;85.50;;;;;;10395597;28;20237;-83
2022/03/02 06:46:32;;;;;;;17.00;15.10;;;3.20;86.10;;;;;;10397132;28;20195;-83
2022/03/02 06:51:40;;;;;;;18.50;15.40;;;3.40;86.10;;;;;;10413686;28;20694;-83
2022/03/02 06:56:49;;;;;;;15.93;14.30;;;3.40;83.40;;;;;;10421051;28;20222;-82
2022/03/02 07:01:53;;;;;;;21.23;16.27;;;3.50;84.30;;;;;;10414854;28;20238;-85
2022/03/02 07:06:56;;;;;;;18.93;15.77;;;3.50;84.40;;;;;;10439013;28;20250;-85
2022/03/02 07:12:03;;;;;;;20.60;17.30;;;3.60;84.60;;;;;;10419158;28;20249;-85
2022/03/02 07:17:06;;;;;;;19.07;16.83;;;3.90;83.60;;;;;;10436512;28;20289;-85
2022/03/02 07:22:12;;;;;;;18.50;16.60;;;4.00;84.10;;;;;;10435695;28;20218;-85
2022/03/02 07:27:16;;;;;;;18.67;16.40;;;4.20;83.80;;;;;;10432802;28;20194;-85
2022/03/02 07:32:22;;;;;;;19.67;16.10;;;4.40;82.80;;;;;;10412734;28;20221;-85
2022/03/02 07:37:27;;;;;;;20.70;16.87;;;4.50;80.80;;;;;;10421384;28;20240;-85
2022/03/02 07:42:32;;;;;;;18.60;16.60;;;4.60;81.10;;;;;;10443542;28;20755;-86
2022/03/02 07:47:35;;;;;;;19.07;16.97;;;4.70;81.20;;;;;;10436111;28;20202;-86
2022/03/02 07:52:38;;;;;;;20.20;16.73;;;4.80;81.20;;;;;;10419181;28;20308;-85
2022/03/02 07:57:42;;;;;;;21.03;15.47;;;4.90;80.80;;;;;;10411992;28;20221;-85
2022/03/02 08:02:46;;;;;;;19.73;17.17;;;5.00;82.00;;;;;;10429281;28;20249;-86
2022/03/02 08:07:49;;;;;;;18.73;16.70;;;5.20;81.90;;;;;;10439911;28;20194;-86
2022/03/02 08:12:54;;;;;;;19.70;16.73;;;5.30;80.80;;;;;;10419563;28;20316;-86
2022/03/02 08:18:00;;;;;;;24.17;18.03;;;5.50;81.10;;;;;;10422806;28;20224;-86
2022/03/02 08:23:06;;;;;;;21.37;17.10;;;5.70;80.60;;;;;;10441558;28;20218;-86
2022/03/02 08:28:10;;;;;;;21.63;17.00;;;5.80;80.80;;;;;;10421211;28;20216;-86
2022/03/02 08:33:14;;;;;;;23.20;19.23;;;6.00;80.20;;;;;;10442929;28;20253;-83
2022/03/02 08:38:17;;;;;;;25.50;17.30;;;6.10;80.30;;;;;;10424988;28;20190;-84
2022/03/02 08:43:20;;;;;;;23.33;18.20;;;6.30;80.20;;;;;;10405106;28;20232;-84
2022/03/02 08:48:22;;;;;;;21.77;17.70;;;6.30;79.50;;;;;;10415895;28;20669;-83
2022/03/02 08:53:25;;;;;;;18.90;16.30;;;6.50;79.70;;;;;;10396794;28;20292;-84
2022/03/02 08:58:29;;;;;;;27.57;18.43;;;6.60;79.40;;;;;;10421484;28;20193;-83
2022/03/02 09:03:34;;;;;;;23.23;17.43;;;6.70;79.30;;;;;;10417218;28;20222;-84
2022/03/02 09:08:38;;;;;;;20.20;17.83;;;6.90;78.50;;;;;;10412928;28;20202;-83
2022/03/02 09:13:41;;;;;;;19.33;16.53;;;7.00;78.20;;;;;;10416488;28;20244;-83
2022/03/02 09:18:43;;;;;;;21.87;17.87;;;7.00;78.70;;;;;;10392639;28;20296;-84
2022/03/02 09:23:46;;;;;;;23.50;18.23;;;7.20;78.80;;;;;;10403974;28;20309;-83
2022/03/02 09:28:52;;;;;;;19.53;17.47;;;7.30;78.10;;;;;;10395503;28;20306;-83
2022/03/02 09:33:58;;;;;;;20.13;17.37;;;7.50;78.70;;;;;;10399377;28;20230;-84
2022/03/02 09:39:01;;;;;;;24.13;18.00;;;7.70;78.40;;;;;;10399061;28;20297;-83
2022/03/02 09:44:06;;;;;;;20.37;17.90;;;7.80;76.80;;;;;;10424007;28;20777;-83
2022/03/02 09:49:10;;;;;;;23.03;18.53;;;8.00;76.90;;;;;;10420938;28;20217;-84
2022/03/02 09:54:13;;;;;;;20.73;18.10;;;8.10;77.00;;;;;;10410317;28;20252;-84
2022/03/02 09:59:18;;;;;;;17.63;15.70;;;8.20;74.70;;;;;;10423934;28;20679;-85
2022/03/02 10:04:22;;;;;;;21.27;17.60;;;8.30;76.70;;;;;;10406694;28;20304;-84
2022/03/02 10:09:28;;;;;;;20.40;17.40;;;8.40;75.40;;;;;;10400245;28;20256;-83
2022/03/02 10:14:32;;;;;;;17.87;15.97;;;8.40;75.70;;;;;;10400311;28;20255;-83
2022/03/02 10:19:36;;;;;;;21.97;16.87;;;8.50;75.90;;;;;;10407072;28;20248;-83
2022/03/02 10:24:45;;;;;;;21.10;17.00;;;8.40;75.40;;;;;;10416140;28;20210;-83
2022/03/02 10:30:02;;;;;;;23.70;17.30;;;8.40;75.60;;;;;;10418624;28;20194;-84
2022/03/02 10:35:07;;;;;;;19.30;15.43;;;8.70;75.60;;;;;;10416565;28;20697;-84
2022/03/02 10:40:16;;;;;;;18.13;16.07;;;8.80;74.40;;;;;;10393023;28;20260;-84
2022/03/02 10:45:22;;;;;;;16.97;15.20;;;9.00;73.70;;;;;;10406286;28;20210;-84
2022/03/02 10:50:27;;;;;;;24.13;17.67;;;9.00;72.80;;;;;;10393776;28;20615;-84
2022/03/02 10:55:31;;;;;;;19.40;16.30;;;9.10;75.00;;;;;;10396479;28;20630;-84
2022/03/02 11:00:35;;;;;;;20.40;16.27;;;9.20;74.20;;;;;;10417726;28;20225;-83
2022/03/02 11:05:37;;;;;;;18.50;15.77;;;9.30;73.20;;;;;;10411738;28;20289;-86
2022/03/02 11:10:40;;;;;;;16.57;14.70;;;9.30;72.50;;;;;;10404741;28;20204;-84
2022/03/02 11:15:49;;;;;;;18.17;16.20;;;9.30;72.60;;;;;;10419162;28;20226;-84
2022/03/02 11:21:01;;;;;;;19.53;15.40;;;9.30;69.70;;;;;;10410838;28;20218;-84
2022/03/02 11:26:11;;;;;;;19.03;14.53;;;9.30;73.10;;;;;;10398149;28;20248;-86
2022/03/02 11:31:21;;;;;;;17.20;15.50;;;9.40;72.20;;;;;;10422765;28;20662;-85
2022/03/02 11:36:23;;;;;;;19.20;14.27;;;9.40;73.20;;;;;;10387393;28;20697;-85
2022/03/02 11:41:33;;;;;;;19.80;15.30;;;9.60;72.50;;;;;;10393123;28;20226;-84
2022/03/02 11:46:46;;;;;;;16.17;14.47;;;9.70;70.70;;;;;;10409305;28;20213;-84
2022/03/02 11:52:05;;;;;;;17.77;15.97;;;9.80;71.80;;;;;;10420895;28;20225;-85
2022/03/02 11:57:07;;;;;;;17.20;15.37;;;9.90;70.80;;;;;;10413267;28;20654;-85
2022/03/02 12:02:16;;;;;;;18.70;14.97;;;10.00;69.70;;;;;;10389011;28;20253;-85
2022/03/02 12:07:18;;;;;;;18.77;14.57;;;10.00;68.60;;;;;;10388124;28;20201;-84
2022/03/02 12:12:22;;;;;;;16.37;14.47;;;9.90;71.20;;;;;;10393755;28;20226;-85
2022/03/02 12:17:30;;;;;;;17.90;15.57;;;10.00;70.10;;;;;;10409625;28;20225;-84
2022/03/02 12:22:35;;;;;;;17.13;15.30;;;10.00;70.40;;;;;;10394161;28;20277;-85
2022/03/02 12:27:38;;;;;;;14.67;13.10;;;10.00;70.30;;;;;;10399602;28;20243;-84
2022/03/02 12:32:43;;;;;;;16.77;14.47;;;10.10;68.00;;;;;;10402588;28;20233;-86
2022/03/02 12:37:47;;;;;;;17.00;14.10;;;10.20;68.00;;;;;;10407409;28;20772;-84
2022/03/02 12:42:51;;;;;;;16.20;13.60;;;10.30;66.60;;;;;;10407640;28;20232;-85
2022/03/02 12:47:55;;;;;;;14.23;12.83;;;10.40;64.60;;;;;;10397076;28;20212;-84
2022/03/02 12:52:57;;;;;;;14.20;12.73;;;10.50;66.10;;;;;;10412132;28;20226;-86
2022/03/02 12:57:59;;;;;;;18.63;14.23;;;10.40;67.50;;;;;;10409025;28;20225;-83
2022/03/02 13:03:06;;;;;;;14.20;12.80;;;10.40;66.30;;;;;;10406855;28;20706;-83
2022/03/02 13:08:25;;;;;;;14.17;12.10;;;10.30;68.10;;;;;;10410346;28;20593;-83
2022/03/02 13:13:36;;;;;;;17.67;13.03;;;10.30;66.60;;;;;;10382674;28;20225;-84
2022/03/02 13:18:40;;;;;;;14.17;12.77;;;10.20;67.30;;;;;;10407042;28;20275;-83
2022/03/02 13:24:20;;;;;;;14.73;12.27;;;10.20;68.80;;;;;;10395369;28;20653;-83
2022/03/02 13:29:24;;;;;;;13.53;12.13;;;10.20;67.90;;;;;;10413457;28;20201;-86
2022/03/02 13:34:30;;;;;;;13.20;11.20;;;10.20;69.00;;;;;;10393884;28;20655;-84
2022/03/02 13:39:44;;;;;;;12.53;11.30;;;10.20;66.00;;;;;;10408087;28;20201;-83
2022/03/02 13:44:47;;;;;;;12.20;10.90;;;10.30;68.20;;;;;;10395960;28;20222;-85
2022/03/02 13:50:13;;;;;;;11.60;10.37;;;10.30;68.50;;;;;;10389605;28;20296;-85
2022/03/02 13:55:35;;;;;;;11.97;10.50;;;10.30;68.50;;;;;;10405111;28;20229;-86
2022/03/02 14:00:38;;;;;;;15.40;11.70;;;10.40;68.70;;;;;;10392833;28;20207;-84
2022/03/02 14:05:47;;;;;;;12.30;11.10;;;10.40;66.80;;;;;;10413336;28;20204;-84
2022/03/02 14:10:49;;;;;;;10.50;9.50;;;10.40;63.50;;;;;;10390481;28;20230;-85
2022/03/02 14:16:03;;;;;;;12.97;11.73;;;10.30;66.50;;;;;;10414334;28;20642;-86
2022/03/02 14:21:11;;;;;;;17.43;12.50;;;10.30;67.70;;;;;;10414812;28;20271;-84
2022/03/02 14:26:14;;;;;;;11.93;10.73;;;10.20;66.70;;;;;;10398502;28;20225;-83
2022/03/02 14:31:16;;;;;;;14.77;12.20;;;10.20;68.60;;;;;;10421349;28;20332;-85
2022/03/02 14:36:20;;;;;;;11.80;10.53;;;10.10;66.80;;;;;;10407840;28;20241;-85
2022/03/02 14:41:26;;;;;;;14.77;11.60;;;10.10;69.80;;;;;;10407248;28;20232;-86
2022/03/02 14:46:34;;;;;;;13.73;11.97;;;10.00;67.30;;;;;;10428000;28;20224;-85
2022/03/02 14:51:45;;;;;;;13.63;12.20;;;9.90;71.30;;;;;;10424703;28;20218;-85
2022/03/02 14:56:48;;;;;;;12.63;11.10;;;9.80;68.40;;;;;;10427691;28;20568;-85
2022/03/02 15:01:50;;;;;;;13.50;11.77;;;9.80;69.70;;;;;;10409269;28;20249;-85
2022/03/02 15:06:54;;;;;;;12.47;11.07;;;9.80;69.10;;;;;;10414375;28;20206;-85
2022/03/02 15:11:56;;;;;;;13.30;12.00;;;9.70;65.20;;;;;;10414423;28;20226;-86
2022/03/02 15:17:03;;;;;;;16.40;12.60;;;9.70;68.30;;;;;;10427022;28;20221;-85
2022/03/02 15:22:09;;;;;;;17.87;11.87;;;9.70;71.80;;;;;;10402741;28;20265;-85
2022/03/02 15:27:14;;;;;;;15.70;11.80;;;9.60;69.80;;;;;;10409759;28;20226;-85
2022/03/02 15:32:20;;;;;;;12.07;10.83;;;9.60;70.60;;;;;;10417163;28;20284;-84
2022/03/02 15:37:25;;;;;;;17.70;12.80;;;9.50;71.10;;;;;;10409402;28;20222;-84
2022/03/02 15:42:30;;;;;;;13.03;10.87;;;9.50;71.50;;;;;;10407175;28;20219;-84
2022/03/02 15:47:35;;;;;;;16.37;12.17;;;9.50;73.30;;;;;;10409656;28;20248;-85
2022/03/02 15:52:40;;;;;;;15.70;12.50;;;9.50;69.30;;;;;;10396919;28;20228;-84
2022/03/02 15:57:57;;;;;;;14.23;11.30;;;9.50;73.50;;;;;;10413243;28;20225;-85
2022/03/02 16:03:01;;;;;;;15.13;13.63;;;9.50;73.50;;;;;;10422415;28;20221;-84
2022/03/02 16:08:14;;;;;;;14.87;13.20;;;9.40;73.70;;;;;;10416960;28;20202;-84
2022/03/02 16:13:22;;;;;;;16.47;12.60;;;9.40;72.20;;;;;;10407242;28;20747;-85
2022/03/02 16:18:27;;;;;;;13.57;12.17;;;9.30;73.90;;;;;;10400313;28;20246;-84
2022/03/02 16:23:36;;;;;;;15.00;13.27;;;9.30;73.30;;;;;;10402941;28;20226;-85
2022/03/02 16:28:40;;;;;;;13.40;11.70;;;9.20;72.10;;;;;;10419964;28;20200;-82
2022/03/02 16:33:44;;;;;;;15.07;13.53;;;9.10;74.30;;;;;;10371671;28;20261;-82
2022/03/02 16:38:48;;;;;;;15.50;12.97;;;9.10;74.50;;;;;;10419299;28;20229;-82
2022/03/02 16:43:50;;;;;;;16.80;12.27;;;9.10;75.00;;;;;;10414895;28;20226;-83
2022/03/02 16:48:52;;;;;;;15.87;13.63;;;9.10;74.50;;;;;;10419142;28;20204;-84
2022/03/02 16:53:56;;;;;;;15.80;14.00;;;9.00;76.80;;;;;;10408807;28;20230;-84
2022/03/02 16:58:58;;;;;;;15.00;12.90;;;8.90;76.70;;;;;;10404771;28;20292;-84
2022/03/02 17:04:01;;;;;;;14.40;12.90;;;8.90;78.10;;;;;;10419328;28;20472;-83
2022/03/02 17:09:06;;;;;;;14.87;13.20;;;8.80;78.10;;;;;;10409804;28;20200;-85
2022/03/02 17:14:08;;;;;;;17.20;12.50;;;8.80;79.30;;;;;;10416485;28;20652;-85
2022/03/02 17:19:11;;;;;;;15.20;13.60;;;8.80;77.30;;;;;;10392579;28;20224;-86
2022/03/02 17:24:15;;;;;;;14.97;13.40;;;8.70;79.50;;;;;;10401636;28;20284;-82
2022/03/02 17:34:34;;;;;;;15.03;13.53;;;8.60;79.60;;;;;;10406227;28;20261;-80
2022/03/02 17:39:46;;;;;;;15.03;13.40;;;8.60;79.30;;;;;;10402104;28;20233;-82
2022/03/02 17:45:02;;;;;;;14.53;13.13;;;8.60;79.60;;;;;;10399677;28;20600;-84
2022/03/02 17:50:10;;;;;;;14.67;13.20;;;8.60;79.50;;;;;;10391953;28;20198;-83
2022/03/02 17:55:22;;;;;;;14.63;13.17;;;8.50;80.10;;;;;;10394406;28;20308;-85
2022/03/02 18:00:37;;;;;;;17.53;15.30;;;8.50;81.70;;;;;;10396868;28;20288;-81
2022/03/02 18:05:45;;;;;;;15.40;13.57;;;8.50;81.00;;;;;;10411182;28;20225;-83
2022/03/02 18:10:48;;;;;;;15.73;13.93;;;8.50;81.30;;;;;;10433172;28;20197;-85
2022/03/02 18:15:57;;;;;;;17.77;14.67;;;8.40;79.40;;;;;;10394895;28;20694;-83
2022/03/02 18:21:14;;;;;;;15.03;13.30;;;8.40;81.60;;;;;;10412768;28;20234;-83
2022/03/02 18:26:30;;;;;;;17.03;13.50;;;8.40;82.20;;;;;;10411243;28;20201;-84
2022/03/02 18:31:32;;;;;;;16.77;13.37;;;8.40;82.70;;;;;;10418474;28;20229;-82
2022/03/02 18:36:55;;;;;;;16.63;14.10;;;8.40;83.70;;;;;;10420043;28;20214;-83
2022/03/02 18:41:59;;;;;;;17.23;13.13;;;8.40;83.20;;;;;;10408651;28;20718;-84
2022/03/02 18:47:03;;;;;;;17.80;15.23;;;8.40;83.20;;;;;;10421973;28;20325;-83
2022/03/02 18:52:06;;;;;;;18.27;16.37;;;8.40;83.50;;;;;;10403504;28;20277;-82
2022/03/02 18:57:19;;;;;;;19.47;16.10;;;8.30;84.20;;;;;;10427755;28;20709;-85
2022/03/02 19:02:27;;;;;;;19.60;16.63;;;8.20;82.20;;;;;;10410174;28;20226;-83
2022/03/02 19:07:30;;;;;;;21.50;15.33;;;8.20;82.20;;;;;;10391479;28;20190;-85
2022/03/02 19:12:34;;;;;;;15.80;14.20;;;8.10;83.80;;;;;;10412322;28;20232;-83
2022/03/02 19:17:36;;;;;;;16.40;14.70;;;7.90;83.50;;;;;;10375074;28;20230;-84
2022/03/02 19:22:41;;;;;;;20.20;17.23;;;7.80;83.40;;;;;;10405785;28;20222;-84
2022/03/02 19:27:46;;;;;;;15.90;14.30;;;7.70;82.80;;;;;;10410729;28;20210;-85
2022/03/02 19:32:48;;;;;;;19.30;15.90;;;7.50;84.00;;;;;;10410198;28;20230;-84
2022/03/02 19:37:51;;;;;;;16.20;14.33;;;7.30;83.60;;;;;;10404353;28;20271;-84
2022/03/02 19:42:56;;;;;;;17.10;15.37;;;7.10;81.70;;;;;;10421321;28;20251;-83
2022/03/02 19:48:04;;;;;;;17.07;15.27;;;6.90;82.50;;;;;;10425568;28;20202;-83
2022/03/02 19:53:12;;;;;;;20.13;17.07;;;6.60;82.10;;;;;;10410995;28;20230;-83
2022/03/02 19:58:17;;;;;;;28.80;22.33;;;6.50;83.80;;;;;;10406293;28;20210;-83
2022/03/02 20:03:20;;;;;;;16.80;15.10;;;6.30;85.40;;;;;;10408776;28;20375;-82
2022/03/02 20:08:23;;;;;;;19.63;16.30;;;6.20;84.60;;;;;;10407492;28;20193;-83
2022/03/02 20:13:27;;;;;;;17.67;15.20;;;6.10;85.60;;;;;;10431980;28;20210;-81
2022/03/02 20:18:30;;;;;;;17.87;14.90;;;6.00;85.60;;;;;;10424503;28;20214;-83
2022/03/02 20:23:33;;;;;;;18.17;16.27;;;5.80;86.80;;;;;;10395585;28;20609;-82
2022/03/02 20:28:36;;;;;;;18.80;16.70;;;5.80;86.20;;;;;;10404931;28;20209;-82
2022/03/02 20:33:38;;;;;;;20.23;17.17;;;5.70;86.10;;;;;;10453237;22;20225;-76
2022/03/02 20:38:41;;;;;;;22.20;18.27;;;5.60;86.80;;;;;;10440155;28;20221;-76
2022/03/02 20:43:51;;;;;;;29.47;25.30;;;5.40;86.70;;;;;;10443513;28;20209;-76
2022/03/02 20:48:54;;;;;;;20.67;17.50;;;5.40;88.60;;;;;;10447104;28;20221;-76
2022/03/02 20:53:56;;;;;;;21.17;18.57;;;5.30;88.00;;;;;;10445312;28;20221;-76
2022/03/02 20:58:59;;;;;;;20.20;18.10;;;5.20;88.50;;;;;;10439567;28;20225;-76
2022/03/02 21:04:02;;;;;;;20.83;18.07;;;5.10;87.50;;;;;;10447596;28;20243;-76
2022/03/02 21:09:04;;;;;;;24.53;19.10;;;5.10;89.80;;;;;;10456495;28;20197;-76
2022/03/02 21:14:08;;;;;;;20.70;17.93;;;5.10;90.30;;;;;;10470824;28;20213;-77
2022/03/02 21:19:10;;;;;;;21.33;18.40;;;5.10;90.30;;;;;;10451974;28;20300;-77
2022/03/02 21:24:12;;;;;;;20.60;16.90;;;5.00;88.80;;;;;;10448080;28;20676;-76
2022/03/02 21:29:16;;;;;;;19.07;17.07;;;4.90;88.60;;;;;;10440515;28;20206;-76
2022/03/02 21:34:18;;;;;;;18.13;16.33;;;4.90;89.70;;;;;;10446502;28;20698;-76
2022/03/02 21:39:20;;;;;;;18.37;16.40;;;4.80;88.90;;;;;;10435090;28;20213;-77
2022/03/02 21:44:24;;;;;;;20.57;16.77;;;4.70;89.60;;;;;;10459436;28;20220;-76
2022/03/02 21:49:30;;;;;;;18.47;16.10;;;4.70;89.60;;;;;;10446190;28;20189;-78
2022/03/02 21:54:32;;;;;;;18.03;16.13;;;4.60;90.10;;;;;;10434620;28;20736;-78
2022/03/02 21:59:36;;;;;;;18.37;16.30;;;4.50;90.10;;;;;;10439861;28;20231;-78
2022/03/02 22:04:38;;;;;;;18.77;16.87;;;4.50;91.20;;;;;;10459639;28;20225;-78
2022/03/02 22:09:40;;;;;;;18.37;16.27;;;4.50;91.10;;;;;;10454383;28;20239;-78
2022/03/02 22:14:43;;;;;;;18.77;16.60;;;4.50;90.80;;;;;;10454254;28;20252;-78
2022/03/02 22:19:47;;;;;;;19.07;15.77;;;4.50;91.20;;;;;;10453378;28;20595;-77
2022/03/02 22:24:51;;;;;;;18.60;16.70;;;4.50;91.10;;;;;;10444816;28;20454;-77
2022/03/02 22:29:54;;;;;;;17.73;15.73;;;4.50;91.20;;;;;;10450839;28;20275;-77
2022/03/02 22:34:59;;;;;;;18.67;16.30;;;4.50;91.50;;;;;;10450475;28;20239;-78
2022/03/02 22:40:02;;;;;;;18.07;15.80;;;4.50;91.70;;;;;;10446901;28;20783;-77
2022/03/02 22:45:07;;;;;;;16.53;15.00;;;4.50;91.50;;;;;;10447673;28;20221;-78
2022/03/02 22:50:10;;;;;;;21.67;16.73;;;4.50;91.40;;;;;;10448724;28;20205;-78
2022/03/02 22:55:12;;;;;;;18.13;16.23;;;4.40;90.40;;;;;;10431691;28;20269;-78
2022/03/02 23:00:47;;;;;;;18.70;16.87;;;4.40;91.80;;;;;;10451468;28;20234;-80
2022/03/02 23:16:33;;;;;;;26.83;17.87;;;4.20;91.10;;;;;;10447162;28;20248;-77
2022/03/02 23:21:36;;;;;;;18.00;16.03;;;4.10;90.40;;;;;;10448792;28;20221;-78
2022/03/02 23:26:38;;;;;;;18.93;16.93;;;3.90;90.50;;;;;;10447123;28;20312;-77
2022/03/02 23:31:41;;;;;;;22.33;18.40;;;3.80;90.00;;;;;;10445752;28;20314;-77
2022/03/02 23:36:44;;;;;;;18.57;16.60;;;3.80;91.70;;;;;;10448023;28;20303;-78
2022/03/02 23:41:46;;;;;;;23.03;18.63;;;3.80;92.00;;;;;;10446961;28;20248;-76
2022/03/02 23:46:48;;;;;;;19.90;17.90;;;3.80;92.50;;;;;;10448114;28;20309;-76
2022/03/02 23:51:52;;;;;;;18.63;16.83;;;3.90;92.70;;;;;;10447651;28;20229;-77
2022/03/02 23:56:54;;;;;;;19.63;17.63;;;4.00;91.90;;;;;;10447033;28;20232;-79
